createdAt,value
2023-01-19T00:01:06.617Z,1.67
2023-01-19T00:03:35.335Z,1.70
2023-01-19T00:06:19.802Z,1.70
2023-01-19T00:08:48.712Z,1.71
2023-01-19T00:11:25.549Z,1.73
2023-01-19T00:13:57.882Z,1.75
2023-01-19T00:16:24.727Z,1.77
2023-01-19T00:18:54.066Z,1.79
2023-01-19T00:21:22.349Z,1.78
2023-01-19T00:23:51.318Z,1.78
2023-01-19T00:26:19.357Z,1.77
2023-01-19T00:28:46.259Z,1.78
2023-01-19T00:31:14.027Z,1.79
2023-01-19T00:33:41.470Z,1.78
2023-01-19T00:36:17.459Z,1.74
2023-01-19T00:38:44.272Z,1.42
2023-01-19T00:41:12.574Z,1.24
2023-01-19T00:43:41.790Z,1.17
2023-01-19T00:46:12.153Z,1.13
2023-01-19T00:48:38.885Z,1.10
2023-01-19T00:51:06.309Z,1.05
2023-01-19T00:53:52.172Z,0.95
2023-01-19T00:56:19.219Z,0.87
2023-01-19T00:58:49.690Z,0.81
2023-01-19T01:01:16.682Z,0.79
2023-01-19T01:03:47.414Z,0.78
2023-01-19T01:06:17.063Z,0.77
2023-01-19T01:08:43.808Z,0.86
2023-01-19T01:11:19.721Z,0.97
2023-01-19T01:13:49.111Z,1.15
2023-01-19T01:16:16.557Z,1.23
2023-01-19T01:18:44.684Z,1.28
2023-01-19T01:21:13.060Z,1.32
2023-01-19T01:23:39.989Z,1.38
2023-01-19T01:26:06.702Z,1.39
2023-01-19T01:28:38.023Z,1.41
2023-01-19T01:31:05.431Z,1.42
2023-01-19T01:37:14.115Z,1.30
2023-01-19T01:39:42.207Z,1.25
2023-01-19T01:42:18.754Z,1.22
2023-01-19T01:44:51.708Z,1.19
2023-01-19T01:47:27.366Z,1.18
2023-01-19T01:49:59.823Z,1.17
2023-01-19T01:52:29.563Z,1.17
2023-01-19T01:54:58.107Z,1.21
2023-01-19T01:57:28.235Z,1.22
2023-01-19T01:59:58.107Z,1.23
2023-01-19T02:02:46.937Z,1.25
2023-01-19T02:05:37.231Z,1.25
2023-01-19T02:08:38.690Z,1.28
2023-01-19T02:11:25.648Z,1.33
2023-01-19T02:13:53.338Z,1.37
2023-01-19T02:16:21.301Z,1.40
2023-01-19T02:18:52.077Z,1.44
2023-01-19T02:21:35.267Z,1.45
2023-01-19T02:24:03.119Z,1.48
2023-01-19T02:26:35.406Z,1.48
2023-01-19T02:29:08.778Z,1.51
2023-01-19T02:31:37.837Z,1.54
2023-01-19T02:34:06.309Z,1.57
2023-01-19T02:36:36.623Z,1.59
2023-01-19T02:39:04.965Z,1.62
2023-01-19T02:41:36.975Z,1.67
2023-01-19T02:44:06.473Z,1.72
2023-01-19T02:46:34.354Z,1.78
2023-01-19T02:49:01.450Z,1.89
2023-01-19T02:51:48.532Z,1.99
2023-01-19T02:54:27.273Z,2.07
2023-01-19T02:57:01.880Z,2.14
2023-01-19T03:00:09.958Z,2.19
2023-01-19T03:02:56.454Z,2.21
2023-01-19T03:05:51.996Z,2.24
2023-01-19T03:08:23.653Z,2.26
2023-01-19T03:11:02.801Z,2.29
2023-01-19T03:13:59.905Z,2.32
2023-01-19T03:16:37.305Z,2.32
2023-01-19T03:19:19.736Z,2.32
2023-01-19T03:22:03.956Z,2.32
2023-01-19T03:24:38.203Z,2.31
2023-01-19T03:27:20.009Z,2.34
2023-01-19T03:29:55.719Z,2.34
2023-01-19T03:32:30.634Z,2.41
2023-01-19T03:35:01.716Z,2.40
2023-01-19T03:43:42.337Z,2.38
2023-01-19T03:46:11.463Z,2.34
2023-01-19T03:48:42.082Z,2.35
2023-01-19T03:51:09.866Z,2.35
2023-01-19T03:53:36.654Z,2.34
2023-01-19T03:56:03.828Z,2.35
2023-01-19T03:58:30.748Z,2.37
2023-01-19T04:00:57.687Z,2.34
2023-01-19T04:03:24.553Z,2.33
2023-01-19T04:05:51.498Z,2.31
2023-01-19T04:08:18.102Z,2.28
2023-01-19T04:10:44.941Z,2.25
2023-01-19T04:13:12.224Z,2.22
2023-01-19T04:15:38.874Z,2.19
2023-01-19T04:18:09.729Z,2.14
2023-01-19T04:20:37.330Z,2.09
2023-01-19T04:23:04.396Z,2.02
2023-01-19T04:25:31.501Z,1.96
2023-01-19T04:27:58.906Z,1.91
2023-01-19T04:30:26.635Z,1.84
2023-01-19T04:32:55.426Z,1.79
2023-01-19T04:35:22.676Z,1.74
2023-01-19T04:37:49.345Z,1.68
2023-01-19T04:40:15.966Z,1.65
2023-01-19T04:42:49.366Z,1.62
2023-01-19T04:45:16.263Z,1.58
2023-01-19T04:47:43.093Z,1.56
2023-01-19T04:50:11.325Z,1.54
2023-01-19T04:52:37.960Z,1.54
2023-01-19T04:55:06.443Z,1.52
2023-01-19T04:57:33.188Z,1.50
2023-01-19T05:00:00.182Z,1.49
2023-01-19T05:02:27.391Z,1.48
2023-01-19T05:04:56.644Z,1.47
2023-01-19T05:07:25.692Z,1.46
2023-01-19T05:09:55.031Z,1.45
2023-01-19T05:12:23.892Z,1.44
2023-01-19T05:14:50.488Z,1.43
2023-01-19T05:17:17.008Z,1.43
2023-01-19T05:19:43.604Z,1.45
2023-01-19T05:22:17.991Z,1.44
2023-01-19T05:24:44.844Z,1.48
2023-01-19T05:27:12.048Z,1.48
2023-01-19T05:29:38.938Z,1.49
2023-01-19T05:32:07.092Z,1.51
2023-01-19T05:34:36.757Z,1.53
2023-01-19T05:37:03.637Z,1.53
2023-01-19T05:39:30.725Z,1.53
2023-01-19T05:41:57.595Z,1.53
2023-01-19T05:44:24.522Z,1.55
2023-01-19T05:46:51.079Z,1.58
2023-01-19T05:49:18.593Z,1.60
2023-01-19T05:51:45.516Z,1.58
2023-01-19T05:54:17.837Z,1.62
2023-01-19T05:56:46.965Z,1.69
2023-01-19T05:59:13.498Z,1.79
2023-01-19T06:01:40.613Z,1.85
2023-01-19T06:04:09.650Z,1.88
2023-01-19T06:06:36.513Z,1.88
2023-01-19T06:09:03.387Z,1.90
2023-01-19T06:11:32.353Z,1.94
2023-01-19T06:14:03.998Z,1.97
2023-01-19T06:16:32.898Z,1.94
2023-01-19T06:19:01.963Z,1.90
2023-01-19T06:21:28.591Z,1.87
2023-01-19T06:23:55.074Z,1.82
2023-01-19T06:26:21.798Z,1.77
2023-01-19T06:28:48.695Z,1.76
2023-01-19T06:31:15.362Z,1.80
2023-01-19T06:33:42.368Z,1.88
2023-01-19T06:36:11.721Z,1.95
2023-01-19T06:38:38.635Z,2.03
2023-01-19T06:41:05.854Z,2.16
2023-01-19T06:43:33.137Z,2.26
2023-01-19T06:46:00.737Z,2.25
2023-01-19T06:48:33.904Z,2.27
2023-01-19T06:51:03.006Z,2.37
2023-01-19T06:53:32.179Z,2.41
2023-01-19T06:56:01.312Z,2.34
2023-01-19T06:58:29.184Z,2.29
2023-01-19T07:00:56.598Z,2.25
2023-01-19T07:03:23.730Z,2.21
2023-01-19T07:05:54.174Z,2.19
2023-01-19T07:08:20.949Z,2.15
2023-01-19T07:11:25.650Z,2.13
2023-01-19T07:13:35.796Z,2.11
2023-01-19T07:16:14.696Z,2.09
2023-01-19T07:18:41.556Z,2.07
2023-01-19T07:21:08.692Z,2.01
2023-01-19T07:23:35.743Z,1.96
2023-01-19T07:26:05.439Z,1.93
2023-01-19T07:28:33.188Z,1.89
2023-01-19T07:31:15.962Z,1.79
2023-01-19T07:33:43.476Z,1.73
2023-01-19T07:36:11.948Z,1.65
2023-01-19T07:38:38.912Z,1.58
2023-01-19T07:41:11.676Z,1.55
2023-01-19T07:43:38.263Z,1.53
2023-01-19T07:46:07.199Z,1.53
2023-01-19T07:48:35.468Z,1.54
2023-01-19T07:51:05.974Z,1.56
2023-01-19T07:53:35.399Z,1.60
2023-01-19T07:56:02.005Z,1.63
2023-01-19T07:58:31.979Z,1.65
2023-01-19T08:00:58.931Z,1.70
2023-01-19T08:03:28.073Z,1.73
2023-01-19T08:05:54.819Z,1.71
2023-01-19T08:08:24.001Z,1.70
2023-01-19T08:10:52.435Z,1.67
2023-01-19T08:13:19.367Z,1.65
2023-01-19T08:15:49.704Z,1.60
2023-01-19T08:18:16.900Z,1.55
2023-01-19T08:20:44.050Z,1.52
2023-01-19T08:23:10.947Z,1.50
2023-01-19T08:25:43.120Z,1.51
2023-01-19T08:28:11.172Z,1.52
2023-01-19T08:30:38.942Z,1.56
2023-01-19T08:33:08.320Z,1.64
2023-01-19T08:35:41.252Z,1.80
2023-01-19T08:38:09.385Z,2.03
2023-01-19T08:40:42.171Z,2.26
2023-01-19T08:43:17.820Z,2.33
2023-01-19T08:45:50.017Z,2.84
2023-01-19T08:48:19.252Z,3.32
2023-01-19T08:50:48.280Z,3.44
2023-01-19T08:53:16.021Z,3.49
2023-01-19T08:55:43.256Z,3.51
2023-01-19T08:58:11.454Z,3.51
2023-01-19T09:00:39.551Z,3.39
2023-01-19T09:03:08.080Z,3.38
2023-01-19T09:05:39.234Z,3.68
2023-01-19T09:08:11.569Z,3.95
2023-01-19T09:10:39.455Z,4.08
2023-01-19T09:13:09.504Z,3.73
2023-01-19T09:15:37.851Z,3.41
2023-01-19T09:18:07.816Z,3.21
2023-01-19T09:20:36.454Z,3.22
2023-01-19T09:23:11.194Z,3.25
2023-01-19T09:25:44.533Z,3.38
2023-01-19T09:28:18.018Z,3.17
2023-01-19T09:30:45.401Z,3.00
2023-01-19T09:33:15.548Z,2.95
2023-01-19T09:35:43.228Z,2.93
2023-01-19T09:38:15.426Z,2.94
2023-01-19T09:40:56.829Z,2.93
2023-01-19T09:43:35.574Z,2.97
2023-01-19T09:46:06.326Z,3.36
2023-01-19T09:48:58.027Z,4.52
2023-01-19T09:51:27.867Z,4.90
2023-01-19T09:54:05.751Z,5.75
2023-01-19T09:56:32.996Z,6.36
2023-01-19T09:59:00.841Z,6.87
2023-01-19T10:01:35.042Z,7.51
2023-01-19T10:04:23.647Z,7.96
2023-01-19T10:06:56.873Z,8.65
2023-01-19T10:09:42.023Z,8.82
2023-01-19T10:12:19.903Z,8.71
2023-01-19T10:14:58.207Z,8.96
2023-01-19T10:17:45.653Z,9.11
2023-01-19T10:20:23.316Z,9.48
2023-01-19T10:22:52.228Z,9.31
2023-01-19T10:25:25.398Z,9.13
2023-01-19T10:27:54.614Z,9.20
2023-01-19T10:30:29.271Z,9.15
2023-01-19T10:32:56.250Z,8.86
2023-01-19T10:35:25.425Z,9.01
2023-01-19T10:38:00.398Z,8.91
2023-01-19T10:40:33.743Z,8.47
2023-01-19T10:43:00.827Z,7.83
2023-01-19T10:45:31.731Z,7.64
2023-01-19T10:48:06.532Z,7.27
2023-01-19T10:50:37.390Z,7.44
2023-01-19T10:53:06.619Z,8.03
2023-01-19T10:55:38.387Z,8.51
2023-01-19T10:58:06.970Z,8.55
2023-01-19T11:00:41.671Z,8.71
2023-01-19T11:03:25.553Z,8.62
2023-01-19T11:05:52.488Z,8.85
2023-01-19T11:08:28.672Z,8.92
2023-01-19T11:11:04.707Z,8.95
2023-01-19T11:13:33.852Z,8.88
2023-01-19T11:16:15.662Z,8.90
2023-01-19T11:18:44.203Z,8.71
2023-01-19T11:21:15.142Z,8.69
2023-01-19T11:23:55.253Z,8.91
2023-01-19T11:27:04.049Z,8.96
2023-01-19T11:29:31.618Z,8.89
2023-01-19T11:32:12.915Z,8.90
2023-01-19T11:34:39.755Z,8.86
2023-01-19T11:37:06.467Z,8.46
2023-01-19T11:39:49.613Z,7.56
2023-01-19T11:42:18.058Z,7.04
2023-01-19T11:44:55.432Z,6.53
2023-01-19T11:47:33.188Z,6.07
2023-01-19T11:50:13.293Z,5.68
2023-01-19T11:52:46.101Z,5.46
2023-01-19T11:55:12.552Z,5.32
2023-01-19T11:57:44.608Z,5.23
2023-01-19T12:00:20.305Z,5.18
2023-01-19T12:02:50.334Z,5.13
2023-01-19T12:05:21.629Z,5.11
2023-01-19T12:07:50.925Z,5.03
2023-01-19T12:10:33.388Z,5.00
2023-01-19T12:13:01.071Z,4.99
2023-01-19T12:15:41.870Z,4.97
2023-01-19T12:18:29.271Z,4.90
2023-01-19T12:20:56.979Z,4.82
2023-01-19T12:23:42.146Z,4.78
2023-01-19T12:26:17.800Z,4.66
2023-01-19T12:28:50.104Z,4.57
2023-01-19T12:31:22.600Z,4.63
2023-01-19T12:33:54.217Z,4.59
2023-01-19T12:36:29.872Z,4.52
2023-01-19T12:39:13.585Z,4.42
2023-01-19T12:41:41.380Z,4.34
2023-01-19T12:44:19.090Z,4.32
2023-01-19T12:46:49.504Z,4.33
2023-01-19T12:49:33.556Z,4.29
2023-01-19T12:52:37.609Z,4.28
2023-01-19T12:55:13.524Z,4.46
2023-01-19T12:58:01.031Z,4.76
2023-01-19T13:00:40.125Z,5.01
2023-01-19T13:03:18.883Z,5.10
2023-01-19T13:05:52.683Z,5.13
2023-01-19T13:08:27.712Z,5.34
2023-01-19T13:11:09.576Z,5.72
2023-01-19T13:13:37.206Z,5.92
2023-01-19T13:16:19.080Z,5.79
2023-01-19T13:18:52.721Z,5.76
2023-01-19T13:21:31.705Z,5.60
2023-01-19T13:24:03.468Z,5.47
2023-01-19T13:26:34.390Z,5.43
2023-01-19T13:29:14.196Z,5.39
2023-01-19T13:31:43.006Z,5.42
2023-01-19T13:34:16.703Z,5.39
2023-01-19T13:36:51.689Z,5.43
2023-01-19T13:39:37.376Z,5.36
2023-01-19T13:42:08.927Z,5.27
2023-01-19T13:44:47.077Z,5.16
2023-01-19T13:47:17.801Z,5.11
2023-01-19T13:49:46.691Z,5.05
2023-01-19T13:52:21.925Z,5.00
2023-01-19T13:55:04.091Z,4.92
2023-01-19T13:57:39.717Z,4.88
2023-01-19T14:00:12.177Z,4.80
2023-01-19T14:02:41.291Z,4.72
2023-01-19T14:05:26.426Z,4.67
2023-01-19T14:08:10.071Z,4.61
2023-01-19T14:10:48.662Z,4.53
2023-01-19T14:13:21.407Z,4.46
2023-01-19T14:15:50.409Z,4.35
2023-01-19T14:18:17.224Z,4.30
2023-01-19T14:20:59.433Z,4.19
2023-01-19T14:23:42.117Z,4.14
2023-01-19T14:26:41.618Z,4.10
2023-01-19T14:29:21.756Z,4.07
2023-01-19T14:32:02.624Z,4.05
2023-01-19T14:34:44.418Z,4.03
2023-01-19T14:37:24.842Z,4.01
2023-01-19T14:40:15.023Z,3.96
2023-01-19T14:42:48.130Z,3.93
2023-01-19T14:45:21.391Z,3.91
2023-01-19T14:47:59.977Z,3.92
2023-01-19T14:50:37.026Z,3.96
2023-01-19T14:53:09.757Z,3.99
2023-01-19T14:55:47.801Z,3.94
2023-01-19T14:58:18.085Z,3.94
2023-01-19T15:00:45.759Z,3.92
2023-01-19T15:03:13.324Z,3.90
2023-01-19T15:05:43.030Z,3.84
2023-01-19T15:08:20.232Z,3.78
2023-01-19T15:10:47.192Z,3.71
2023-01-19T15:13:22.368Z,3.71
2023-01-19T15:16:09.227Z,3.64
2023-01-19T15:18:36.611Z,3.61
2023-01-19T15:21:03.551Z,3.57
2023-01-19T15:23:31.672Z,3.55
2023-01-19T15:26:04.029Z,3.50
2023-01-19T15:28:31.496Z,3.45
2023-01-19T15:31:01.470Z,3.38
2023-01-19T15:33:33.650Z,3.33
2023-01-19T15:36:02.788Z,3.26
2023-01-19T15:38:31.759Z,3.22
2023-01-19T15:40:59.308Z,3.15
2023-01-19T15:43:26.179Z,3.10
2023-01-19T15:46:01.185Z,2.98
2023-01-19T15:48:28.650Z,2.93
2023-01-19T15:50:55.591Z,2.88
2023-01-19T15:53:24.463Z,2.82
2023-01-19T15:55:53.356Z,2.78
2023-01-19T15:58:21.030Z,2.71
2023-01-19T16:00:57.751Z,2.61
2023-01-19T16:03:28.410Z,2.53
2023-01-19T16:06:33.989Z,2.43
2023-01-19T16:09:01.770Z,2.36
2023-01-19T16:11:31.721Z,2.29
2023-01-19T16:13:59.811Z,2.24
2023-01-19T16:16:28.384Z,2.20
2023-01-19T16:18:58.017Z,2.14
2023-01-19T16:21:24.878Z,2.07
2023-01-19T16:23:51.989Z,2.01
2023-01-19T16:26:31.110Z,1.98
2023-01-19T16:29:08.157Z,1.93
2023-01-19T16:31:37.451Z,1.88
2023-01-19T16:34:04.162Z,1.87
2023-01-19T16:36:33.149Z,1.78
2023-01-19T16:39:06.516Z,1.70
2023-01-19T16:41:35.615Z,1.68
2023-01-19T16:44:03.196Z,1.63
2023-01-19T16:46:35.509Z,1.59
2023-01-19T16:49:23.114Z,1.54
2023-01-19T16:51:50.590Z,1.49
2023-01-19T16:54:20.559Z,1.44
2023-01-19T16:56:48.315Z,1.37
2023-01-19T16:59:21.391Z,1.26
2023-01-19T17:02:03.050Z,1.15
2023-01-19T17:04:29.697Z,1.08
2023-01-19T17:06:57.683Z,1.08
2023-01-19T17:09:24.402Z,1.12
2023-01-19T17:11:51.261Z,1.16
2023-01-19T17:14:22.884Z,1.21
2023-01-19T17:16:49.538Z,1.25
2023-01-19T17:19:18.604Z,1.28
2023-01-19T17:21:46.729Z,1.26
2023-01-19T17:24:13.356Z,1.24
2023-01-19T17:26:40.614Z,1.25
2023-01-19T17:29:09.850Z,1.20
2023-01-19T17:31:37.527Z,1.16
2023-01-19T17:34:05.088Z,1.14
2023-01-19T17:36:35.763Z,1.15
2023-01-19T17:39:07.096Z,1.09
2023-01-19T17:41:35.662Z,1.05
2023-01-19T17:44:04.826Z,1.04
2023-01-19T17:46:35.051Z,1.01
2023-01-19T17:49:05.751Z,0.95
2023-01-19T17:51:35.834Z,0.83
2023-01-19T17:54:02.850Z,0.65
2023-01-19T17:56:45.704Z,0.61
2023-01-19T17:59:13.728Z,0.53
2023-01-19T18:01:41.957Z,0.56
2023-01-19T18:04:09.142Z,0.60
2023-01-19T18:06:37.272Z,0.56
2023-01-19T18:09:07.128Z,0.45
2023-01-19T18:11:34.910Z,0.34
2023-01-19T18:14:04.266Z,0.25
2023-01-19T18:16:32.295Z,0.20
2023-01-19T18:19:01.556Z,0.13
2023-01-19T18:21:31.855Z,0.17
2023-01-19T18:24:02.637Z,0.20
2023-01-19T18:26:30.347Z,0.23
2023-01-19T18:28:57.957Z,0.24
2023-01-19T18:31:29.091Z,0.28
2023-01-19T18:33:56.310Z,0.31
2023-01-19T18:36:25.449Z,0.32
2023-01-19T18:38:53.836Z,0.35
2023-01-19T18:41:22.055Z,0.41
2023-01-19T18:43:52.314Z,0.48
2023-01-19T18:46:19.450Z,0.52
2023-01-19T18:48:56.984Z,0.55
2023-01-19T18:51:29.233Z,0.58
2023-01-19T18:53:57.989Z,0.58
2023-01-19T18:56:26.076Z,0.53
2023-01-19T18:58:53.622Z,0.53
2023-01-19T19:01:24.072Z,0.52
2023-01-19T19:03:53.964Z,0.47
2023-01-19T19:06:26.271Z,0.42
2023-01-19T19:08:55.476Z,0.39
2023-01-19T19:11:26.751Z,0.35
2023-01-19T19:13:56.834Z,0.35
2023-01-19T19:16:24.505Z,0.33
2023-01-19T19:18:51.401Z,0.32
2023-01-19T19:21:19.934Z,0.35
2023-01-19T19:23:51.896Z,0.38
2023-01-19T19:26:18.912Z,0.42
2023-01-19T19:28:49.791Z,0.47
2023-01-19T19:31:20.971Z,0.52
2023-01-19T19:33:49.439Z,0.53
2023-01-19T19:36:16.851Z,0.53
2023-01-19T19:38:45.115Z,0.57
2023-01-19T19:41:14.717Z,0.59
2023-01-19T19:43:41.818Z,0.61
2023-01-19T19:46:11.224Z,0.61
2023-01-19T19:48:39.417Z,0.63
2023-01-19T19:51:17.414Z,0.64
2023-01-19T19:53:51.160Z,0.66
2023-01-19T19:56:21.107Z,0.68
2023-01-19T19:58:48.848Z,0.71
2023-01-19T20:01:25.226Z,0.72
2023-01-19T20:04:00.536Z,0.76
2023-01-19T20:06:37.707Z,0.81
2023-01-19T20:09:06.743Z,0.83
2023-01-19T20:11:33.472Z,0.83
2023-01-19T20:14:00.042Z,0.85
2023-01-19T20:16:28.150Z,0.85
2023-01-19T20:18:55.304Z,0.85
2023-01-19T20:21:25.061Z,0.87
2023-01-19T20:23:53.580Z,0.85
2023-01-19T20:26:25.385Z,0.84
2023-01-19T20:28:53.033Z,0.82
2023-01-19T20:31:26.998Z,0.82
2023-01-19T20:33:56.240Z,0.82
2023-01-19T20:36:24.966Z,0.83
2023-01-19T20:38:54.813Z,0.83
2023-01-19T20:41:22.679Z,0.82
2023-01-19T20:43:50.078Z,0.83
2023-01-19T20:46:21.547Z,0.83
2023-01-19T20:48:52.981Z,0.83
2023-01-19T20:51:20.820Z,0.83
2023-01-19T20:53:53.019Z,0.78
2023-01-19T20:56:22.499Z,0.72
2023-01-19T20:58:49.291Z,0.67
2023-01-19T21:01:25.669Z,0.64
2023-01-19T21:03:52.611Z,0.64
2023-01-19T21:06:21.470Z,0.62
2023-01-19T21:08:51.922Z,0.62
2023-01-19T21:11:21.301Z,0.61
2023-01-19T21:13:55.589Z,0.62
2023-01-19T21:16:32.135Z,0.60
2023-01-19T21:18:59.481Z,0.60
2023-01-19T21:21:31.685Z,0.58
2023-01-19T21:24:00.230Z,0.57
2023-01-19T21:26:30.062Z,0.57
2023-01-19T21:28:58.503Z,0.56
2023-01-19T21:31:28.624Z,0.53
2023-01-19T21:33:58.023Z,0.52
2023-01-19T21:36:25.261Z,0.50
2023-01-19T21:38:52.741Z,0.49
2023-01-19T21:41:19.885Z,0.47
2023-01-19T21:43:50.390Z,0.43
2023-01-19T21:46:30.704Z,0.38
2023-01-19T21:48:59.344Z,0.34
2023-01-19T21:51:35.128Z,0.30
2023-01-19T21:54:06.093Z,0.29
2023-01-19T21:56:33.804Z,0.26
2023-01-19T21:59:03.210Z,0.22
2023-01-19T22:01:31.016Z,0.22
2023-01-19T22:03:58.701Z,0.21
2023-01-19T22:06:26.779Z,0.18
2023-01-19T22:08:54.191Z,0.16
2023-01-19T22:11:22.690Z,0.12
2023-01-19T22:13:49.587Z,0.10
2023-01-19T22:16:19.476Z,0.09
2023-01-19T22:18:55.645Z,0.08
2023-01-19T22:21:25.052Z,0.04
2023-01-19T22:23:55.910Z,-0.01
2023-01-19T22:26:25.711Z,-0.01
2023-01-19T22:28:57.350Z,0.05
2023-01-19T22:31:26.423Z,0.07
2023-01-19T22:33:53.957Z,0.09
2023-01-19T22:36:26.894Z,0.12
2023-01-19T22:38:58.286Z,0.15
2023-01-19T22:41:33.612Z,0.16
2023-01-19T22:44:07.606Z,0.14
2023-01-19T22:46:36.508Z,0.14
2023-01-19T22:49:05.125Z,0.13
2023-01-19T22:51:33.057Z,0.09
2023-01-19T22:54:00.561Z,0.08
2023-01-19T22:56:29.913Z,0.05
2023-01-19T22:58:58.833Z,0.01
2023-01-19T23:01:26.492Z,-0.02
2023-01-19T23:03:54.572Z,-0.07
2023-01-19T23:06:23.962Z,-0.12
2023-01-19T23:08:51.241Z,-0.12
2023-01-19T23:11:20.450Z,-0.12
2023-01-19T23:13:47.215Z,-0.18
2023-01-19T23:16:14.197Z,-0.19
2023-01-19T23:18:45.014Z,-0.16
2023-01-19T23:21:22.530Z,-0.09
2023-01-19T23:23:52.844Z,-0.05
2023-01-19T23:26:20.281Z,-0.02
2023-01-19T23:28:47.886Z,-0.02
2023-01-19T23:31:18.539Z,0.05
2023-01-19T23:33:50.346Z,0.03
2023-01-19T23:36:18.075Z,0.01
2023-01-19T23:38:50.721Z,-0.04
2023-01-19T23:41:20.097Z,-0.07
2023-01-19T23:43:47.061Z,-0.12
2023-01-19T23:46:15.664Z,-0.14
2023-01-19T23:48:42.407Z,-0.15
2023-01-19T23:51:30.375Z,-0.14
2023-01-19T23:53:58.845Z,-0.14
2023-01-19T23:56:25.259Z,-0.18
2023-01-19T23:58:54.597Z,-0.19
